Time;durP1;ratioP1;P1;durP2;ratioP2;P2;SDS_P1;SDS_P2;PMS_P1;PMS_P2;Temp;Humidity;BMP_temperature;BMP_pressure;BME280_temperature;BME280_humidity;BME280_pressure;Samples;Min_cycle;Max_cycle;Signal;HPM_P1;HPM_P2
2023/08/23 00:00:40;;;;;;;;;;;;;;;21.47;28.52;98055.38;4977451;28;971;-76
2023/08/23 00:03:05;;;;;;;;;;;;;;;21.58;28.37;98055.91;4943910;28;1310;-77
2023/08/23 00:05:31;;;;;;;;;;;;;;;21.56;28.59;98049.88;4976865;28;1964;-76
2023/08/23 00:07:56;;;;;;;;;;;;;;;21.90;28.01;98059.91;4976936;28;981;-76
2023/08/23 00:10:22;;;;;;;;;;;;;;;21.77;28.25;98049.31;4977202;28;973;-76
2023/08/23 00:12:49;;;;;;;;;;;;;;;21.90;27.83;98057.09;4959845;28;923;-77
2023/08/23 00:15:16;;;;;;;;;;;;;;;21.59;28.32;98051.81;4976746;28;933;-75
2023/08/23 00:17:41;;;;;;;;;;;;;;;21.84;28.19;98065.34;4976492;28;863;-76
2023/08/23 00:20:07;;;;;;;;;;;;;;;21.96;27.91;98053.25;4977170;28;894;-76
2023/08/23 00:22:32;;;;;;;;;;;;;;;21.92;28.00;98051.78;4938972;29;977;-76
2023/08/23 00:24:58;;;;;;;;;;;;;;;21.93;27.92;98048.50;4939372;29;1907;-75
2023/08/23 00:27:23;;;;;;;;;;;;;;;21.92;28.21;98051.78;4935963;29;1008;-76
2023/08/23 00:29:49;;;;;;;;;;;;;;;21.77;28.35;98051.38;4936664;29;1286;-76
2023/08/23 00:32:14;;;;;;;;;;;;;;;21.94;28.03;98061.41;4904581;29;952;-76
2023/08/23 00:34:40;;;;;;;;;;;;;;;21.97;27.75;98056.91;4920074;29;1358;-76
2023/08/23 00:37:06;;;;;;;;;;;;;;;22.06;27.87;98057.03;4935767;29;960;-78
2023/08/23 00:39:32;;;;;;;;;;;;;;;21.86;27.91;98048.66;4936207;29;907;-75
2023/08/23 00:41:57;;;;;;;;;;;;;;;21.70;28.15;98058.00;4936150;29;1035;-77
2023/08/23 00:44:24;;;;;;;;;;;;;;;21.73;28.22;98051.44;4935930;29;1976;-76
2023/08/23 00:46:50;;;;;;;;;;;;;;;21.95;28.04;98051.66;4920429;29;1128;-76
2023/08/23 00:49:17;;;;;;;;;;;;;;;21.85;28.38;98056.38;4904570;29;1132;-76
2023/08/23 00:51:43;;;;;;;;;;;;;;;21.82;28.17;98053.66;4920179;29;1022;-76
2023/08/23 00:54:11;;;;;;;;;;;;;;;21.62;28.59;98056.59;4904463;29;1177;-75
2023/08/23 00:56:37;;;;;;;;;;;;;;;21.97;28.06;98059.75;4920207;29;937;-76
2023/08/23 00:59:02;;;;;;;;;;;;;;;21.99;27.88;98062.91;4896877;29;1114;-76
2023/08/23 01:01:28;;;;;;;;;;;;;;;21.93;27.98;98062.66;4916920;29;1518;-76
2023/08/23 01:03:55;;;;;;;;;;;;;;;22.03;27.80;98055.91;4917039;29;1260;-76
2023/08/23 01:06:35;;;;;;;;;;;;;;;22.05;27.95;98066.78;4900954;29;1927;-77
2023/08/23 01:09:13;;;;;;;;;;;;;;;21.50;28.67;98065.78;4916935;29;989;-76
2023/08/23 01:11:42;;;;;;;;;;;;;;;21.51;28.84;98064.59;4885895;29;895;-75
2023/08/23 01:14:10;;;;;;;;;;;;;;;21.86;28.17;98060.00;4900885;29;1020;-76
2023/08/23 01:16:36;;;;;;;;;;;;;;;21.80;28.57;98056.91;4901028;29;962;-76
2023/08/23 01:19:08;;;;;;;;;;;;;;;21.86;28.29;98060.00;4916958;29;1460;-77
2023/08/23 01:21:36;;;;;;;;;;;;;;;21.94;27.97;98055.75;4901154;29;966;-76
2023/08/23 01:24:08;;;;;;;;;;;;;;;21.97;28.25;98052.03;4901007;29;1907;-77
2023/08/23 01:26:34;;;;;;;;;;;;;;;22.06;27.89;98046.50;4916786;29;993;-77
2023/08/23 01:28:59;;;;;;;;;;;;;;;21.92;27.96;98048.94;4908706;28;1245;-76
2023/08/23 01:31:26;;;;;;;;;;;;;;;21.90;28.22;98055.03;4980287;28;859;-76
2023/08/23 01:33:52;;;;;;;;;;;;;;;21.87;28.48;98052.31;4962925;28;995;-76
2023/08/23 01:36:18;;;;;;;;;;;;;;;21.70;28.62;98058.00;4946954;28;1092;-76
2023/08/23 01:38:43;;;;;;;;;;;;;;;21.88;28.44;98051.06;4946943;28;1098;-77
2023/08/23 01:41:09;;;;;;;;;;;;;;;21.91;28.21;98050.16;4946896;28;1089;-76
2023/08/23 01:43:34;;;;;;;;;;;;;;;21.79;28.47;98049.66;4926048;29;1094;-76
2023/08/23 01:46:00;;;;;;;;;;;;;;;21.92;28.25;98057.44;4942092;29;1993;-76
2023/08/23 01:48:27;;;;;;;;;;;;;;;21.90;28.43;98054.25;4938738;29;933;-76
2023/08/23 01:50:53;;;;;;;;;;;;;;;21.93;28.28;98056.19;4923164;29;1116;-75
2023/08/23 01:53:18;;;;;;;;;;;;;;;21.73;28.22;98047.81;4922844;29;1255;-76
2023/08/23 01:55:45;;;;;;;;;;;;;;;21.91;28.32;98053.00;4923061;29;1227;-76
2023/08/23 01:58:10;;;;;;;;;;;;;;;22.09;27.76;98050.50;4906765;29;1217;-76
2023/08/23 02:00:36;;;;;;;;;;;;;;;22.25;27.81;98053.28;4907120;29;1119;-76
2023/08/23 02:03:01;;;;;;;;;;;;;;;22.08;27.79;98048.91;4922768;29;964;-76
2023/08/23 02:05:29;;;;;;;;;;;;;;;21.92;27.88;98043.28;4938684;29;1922;-77
2023/08/23 02:07:55;;;;;;;;;;;;;;;21.85;28.07;98044.25;4938577;29;976;-76
2023/08/23 02:10:20;;;;;;;;;;;;;;;22.08;27.99;98043.25;4922747;29;1051;-76
2023/08/23 02:12:46;;;;;;;;;;;;;;;21.97;27.87;98043.53;4906968;29;1185;-76
2023/08/23 02:15:12;;;;;;;;;;;;;;;21.86;28.13;98048.66;4921192;29;1268;-75
2023/08/23 02:17:37;;;;;;;;;;;;;;;21.92;28.27;98046.13;4941776;29;1223;-76
2023/08/23 02:20:04;;;;;;;;;;;;;;;21.61;28.46;98043.69;4941466;28;1074;-76
2023/08/23 02:22:29;;;;;;;;;;;;;;;21.57;28.68;98040.94;4909541;29;1424;-77
2023/08/23 02:24:55;;;;;;;;;;;;;;;21.70;28.49;98045.88;4943823;28;1985;-77
2023/08/23 02:27:22;;;;;;;;;;;;;;;21.90;28.22;98043.72;4961759;28;1319;-76
2023/08/23 02:29:48;;;;;;;;;;;;;;;21.82;28.41;98037.47;4961961;28;915;-76
2023/08/23 02:32:13;;;;;;;;;;;;;;;21.73;28.52;98045.78;4961591;28;1005;-76
2023/08/23 02:34:39;;;;;;;;;;;;;;;21.71;28.36;98042.63;4979219;28;964;-76
2023/08/23 02:37:04;;;;;;;;;;;;;;;21.69;28.50;98036.59;4978648;28;1025;-76
2023/08/23 02:39:30;;;;;;;;;;;;;;;21.50;28.91;98043.16;4978172;28;1006;-76
2023/08/23 02:41:55;;;;;;;;;;;;;;;21.56;28.68;98047.84;4961479;28;947;-75
2023/08/23 02:44:21;;;;;;;;;;;;;;;21.52;28.75;98055.63;4961827;28;1907;-76
2023/08/23 02:46:46;;;;;;;;;;;;;;;21.60;28.80;98047.75;4961570;28;1102;-76
2023/08/23 02:49:12;;;;;;;;;;;;;;;21.64;28.50;98054.09;4978785;28;845;-76
2023/08/23 02:51:39;;;;;;;;;;;;;;;21.97;28.21;98054.06;4961488;28;1506;-75
2023/08/23 02:54:04;;;;;;;;;;;;;;;21.81;28.15;98046.38;4961569;28;1519;-77
2023/08/23 02:56:30;;;;;;;;;;;;;;;21.79;28.33;98055.34;4978665;28;849;-77
2023/08/23 02:58:55;;;;;;;;;;;;;;;21.58;28.47;98050.22;4944263;28;1954;-77
2023/08/23 03:01:21;;;;;;;;;;;;;;;21.63;28.47;98044.03;4978268;28;887;-77
2023/08/23 03:03:46;;;;;;;;;;;;;;;21.74;28.48;98055.06;4928438;28;1184;-78
2023/08/23 03:06:12;;;;;;;;;;;;;;;22.03;27.91;98049.44;4945112;28;1919;-77
2023/08/23 03:08:37;;;;;;;;;;;;;;;22.05;27.81;98055.44;4961390;28;944;-77
2023/08/23 03:11:03;;;;;;;;;;;;;;;22.16;27.59;98055.97;4961163;28;983;-77
2023/08/23 03:13:29;;;;;;;;;;;;;;;22.00;28.16;98056.00;4961211;28;930;-77
2023/08/23 03:15:54;;;;;;;;;;;;;;;21.75;28.46;98053.84;4940505;29;1130;-76
2023/08/23 03:18:20;;;;;;;;;;;;;;;21.93;27.96;98059.03;4924884;29;1180;-77
2023/08/23 03:20:46;;;;;;;;;;;;;;;21.64;28.37;98048.44;4940650;29;1148;-78
2023/08/23 03:23:11;;;;;;;;;;;;;;;21.78;28.21;98055.78;4924960;29;1229;-77
2023/08/23 03:25:37;;;;;;;;;;;;;;;21.54;28.42;98061.63;4940256;29;1997;-77
2023/08/23 03:28:02;;;;;;;;;;;;;;;21.67;28.33;98053.22;4924599;29;1188;-77
2023/08/23 03:30:28;;;;;;;;;;;;;;;21.71;28.15;98053.94;4940655;29;1436;-77
2023/08/23 03:32:53;;;;;;;;;;;;;;;21.70;28.22;98052.31;4921219;29;1079;-78
2023/08/23 03:35:20;;;;;;;;;;;;;;;21.82;28.15;98054.44;4921434;29;1220;-77
2023/08/23 03:37:45;;;;;;;;;;;;;;;21.92;27.80;98052.56;4921449;29;974;-77
2023/08/23 03:40:11;;;;;;;;;;;;;;;21.64;28.49;98051.28;4921336;29;1081;-76
2023/08/23 03:42:36;;;;;;;;;;;;;;;21.98;27.96;98050.00;4905099;29;1192;-77
2023/08/23 03:45:02;;;;;;;;;;;;;;;21.64;28.63;98048.44;4905439;29;1910;-77
2023/08/23 03:47:28;;;;;;;;;;;;;;;21.77;28.13;98045.72;4918989;29;1347;-77
2023/08/23 03:49:53;;;;;;;;;;;;;;;21.74;28.18;98041.72;4953784;28;1117;-77
2023/08/23 03:52:19;;;;;;;;;;;;;;;21.71;28.46;98034.13;4923665;29;1120;-76
2023/08/23 03:54:45;;;;;;;;;;;;;;;21.66;28.56;98062.97;4924333;29;1119;-76
2023/08/23 03:57:11;;;;;;;;;;;;;;;21.99;28.08;98040.25;4924111;29;1084;-77
2023/08/23 03:59:36;;;;;;;;;;;;;;;21.79;28.07;98037.53;4917738;29;1329;-77
2023/08/23 04:02:02;;;;;;;;;;;;;;;21.99;28.03;98046.72;4886509;29;1319;-77
2023/08/23 04:04:27;;;;;;;;;;;;;;;22.08;28.00;98043.25;4886274;29;1910;-77
2023/08/23 04:06:53;;;;;;;;;;;;;;;22.17;27.94;98045.44;4886495;29;1287;-77
2023/08/23 04:09:19;;;;;;;;;;;;;;;21.84;28.45;98046.28;4886205;29;1242;-77
2023/08/23 04:11:44;;;;;;;;;;;;;;;21.64;28.76;98048.44;4918001;29;1036;-77
2023/08/23 04:14:10;;;;;;;;;;;;;;;21.70;28.62;98043.03;4901818;29;1229;-77
2023/08/23 04:16:35;;;;;;;;;;;;;;;21.81;28.70;98046.38;4879611;29;1370;-77
2023/08/23 04:19:01;;;;;;;;;;;;;;;21.72;28.48;98038.53;4879887;29;1059;-77
2023/08/23 04:21:26;;;;;;;;;;;;;;;22.01;28.09;98043.41;4879682;29;964;-77
2023/08/23 04:23:52;;;;;;;;;;;;;;;21.67;28.64;98046.78;4880059;29;1130;-77
2023/08/23 04:26:19;;;;;;;;;;;;;;;21.91;28.27;98044.50;4848756;29;1989;-77
2023/08/23 04:28:45;;;;;;;;;;;;;;;22.06;28.22;98040.03;4879874;29;982;-77
2023/08/23 04:31:10;;;;;;;;;;;;;;;21.97;28.19;98045.56;4906105;29;1027;-76
2023/08/23 04:33:47;;;;;;;;;;;;;;;21.87;28.56;98043.84;4936426;29;1182;-77
2023/08/23 04:36:12;;;;;;;;;;;;;;;21.98;28.39;98047.94;4936386;29;1140;-77
2023/08/23 04:38:38;;;;;;;;;;;;;;;21.98;28.47;98061.31;4936442;29;1278;-76
2023/08/23 04:41:04;;;;;;;;;;;;;;;21.92;28.29;98051.78;4952230;29;1119;-77
2023/08/23 04:43:31;;;;;;;;;;;;;;;21.82;28.64;98060.13;4904904;29;1104;-77
2023/08/23 04:46:00;;;;;;;;;;;;;;;21.64;28.78;98053.31;4951149;28;1906;-77
2023/08/23 04:48:26;;;;;;;;;;;;;;;21.72;28.79;98061.19;4953072;28;1148;-77
2023/08/23 04:50:52;;;;;;;;;;;;;;;21.98;28.40;98067.00;4927185;28;1291;-77
2023/08/23 04:53:18;;;;;;;;;;;;;;;21.81;28.58;98064.19;4946015;28;1229;-77
2023/08/23 04:55:44;;;;;;;;;;;;;;;21.65;28.86;98067.03;4960083;28;933;-77
2023/08/23 04:58:11;;;;;;;;;;;;;;;21.74;28.85;98070.03;4959548;28;1172;-77
2023/08/23 05:00:36;;;;;;;;;;;;;;;21.74;28.53;98075.69;4960031;28;1105;-77
2023/08/23 05:03:02;;;;;;;;;;;;;;;21.93;28.43;98076.03;4961828;28;1229;-76
2023/08/23 05:05:28;;;;;;;;;;;;;;;22.12;28.04;98077.94;4946397;28;1907;-77
2023/08/23 05:07:54;;;;;;;;;;;;;;;22.22;28.09;98088.19;4963538;28;889;-77
2023/08/23 05:10:19;;;;;;;;;;;;;;;21.97;28.14;98079.56;4908256;29;1442;-77
2023/08/23 05:12:45;;;;;;;;;;;;;;;21.93;28.40;98081.69;4908072;29;975;-77
2023/08/23 05:15:10;;;;;;;;;;;;;;;22.12;28.04;98083.63;4923642;29;1216;-77
2023/08/23 05:17:36;;;;;;;;;;;;;;;22.14;28.17;98077.53;4908243;29;1277;-78
2023/08/23 05:20:01;;;;;;;;;;;;;;;21.99;28.34;98079.91;4907798;29;1133;-77
2023/08/23 05:22:27;;;;;;;;;;;;;;;21.84;28.50;98083.13;4908395;29;1137;-78
2023/08/23 05:24:53;;;;;;;;;;;;;;;21.96;28.39;98080.78;4904685;29;1964;-77
2023/08/23 05:27:19;;;;;;;;;;;;;;;21.85;28.77;98076.19;4904818;29;977;-77
2023/08/23 05:29:44;;;;;;;;;;;;;;;22.17;28.05;98085.09;4904765;29;1514;-77
2023/08/23 05:32:11;;;;;;;;;;;;;;;21.99;28.47;98079.91;4889247;29;1443;-77
2023/08/23 05:34:37;;;;;;;;;;;;;;;21.99;28.50;98077.06;4904715;29;1157;-76
2023/08/23 05:37:03;;;;;;;;;;;;;;;22.03;28.42;98075.75;4888949;29;1285;-77
2023/08/23 05:39:30;;;;;;;;;;;;;;;22.05;28.51;98072.44;4904661;29;1223;-77
2023/08/23 05:41:55;;;;;;;;;;;;;;;22.05;28.70;98069.63;4934354;29;1041;-77
2023/08/23 05:44:21;;;;;;;;;;;;;;;22.17;28.25;98074.56;4923568;29;1902;-77
2023/08/23 05:46:47;;;;;;;;;;;;;;;21.99;28.66;98068.59;4939177;29;1040;-77
2023/08/23 05:49:14;;;;;;;;;;;;;;;21.96;28.48;98069.47;4904481;29;1086;-76
2023/08/23 05:51:39;;;;;;;;;;;;;;;21.92;28.80;98074.44;4919907;29;955;-77
2023/08/23 05:54:06;;;;;;;;;;;;;;;21.93;28.58;98071.16;4904025;29;976;-77
2023/08/23 05:56:31;;;;;;;;;;;;;;;21.85;28.67;98072.56;4904597;29;916;-77
2023/08/23 05:58:57;;;;;;;;;;;;;;;21.94;28.75;98066.28;4920166;29;927;-77
2023/08/23 06:01:23;;;;;;;;;;;;;;;21.91;28.77;98073.63;4919645;29;1459;-78
2023/08/23 06:03:49;;;;;;;;;;;;;;;22.17;28.46;98071.72;4903966;29;1010;-77
2023/08/23 06:06:14;;;;;;;;;;;;;;;22.33;27.83;98066.03;4919692;29;2050;-77
2023/08/23 06:08:40;;;;;;;;;;;;;;;22.35;28.00;98074.88;4919676;29;992;-77
2023/08/23 06:11:05;;;;;;;;;;;;;;;21.94;28.80;98071.94;4872945;29;983;-77
2023/08/23 06:13:31;;;;;;;;;;;;;;;21.91;28.73;98072.84;4919151;29;1020;-77
2023/08/23 06:15:57;;;;;;;;;;;;;;;22.01;28.71;98066.09;4888055;29;999;-77
2023/08/23 06:18:23;;;;;;;;;;;;;;;21.72;29.22;98069.69;4903755;29;1056;-77
2023/08/23 06:20:49;;;;;;;;;;;;;;;21.83;28.81;98073.03;4900446;29;1127;-77
2023/08/23 06:23:15;;;;;;;;;;;;;;;21.83;29.22;98070.19;4900789;29;1025;-77
2023/08/23 06:25:40;;;;;;;;;;;;;;;21.85;29.09;98076.19;4903866;29;1982;-77
2023/08/23 06:28:07;;;;;;;;;;;;;;;22.11;28.74;98076.38;4922654;29;931;-77
2023/08/23 06:30:32;;;;;;;;;;;;;;;22.21;28.39;98080.16;4922709;29;933;-77
2023/08/23 06:32:58;;;;;;;;;;;;;;;22.05;28.65;98078.13;4938440;29;1004;-77
2023/08/23 06:35:24;;;;;;;;;;;;;;;21.94;28.88;98084.06;4938307;29;960;-78
2023/08/23 06:37:50;;;;;;;;;;;;;;;22.03;28.76;98081.41;4922708;29;1074;-77
2023/08/23 06:40:16;;;;;;;;;;;;;;;21.96;28.98;98092.13;4938380;29;1012;-77
2023/08/23 06:42:41;;;;;;;;;;;;;;;21.83;29.17;98090.03;4937962;29;1014;-77
2023/08/23 06:45:08;;;;;;;;;;;;;;;22.04;28.67;98085.84;4938202;29;1993;-77
2023/08/23 06:47:33;;;;;;;;;;;;;;;21.84;29.16;98085.94;4937444;29;1157;-78
2023/08/23 06:49:59;;;;;;;;;;;;;;;22.08;28.88;98088.56;4937832;29;965;-77
2023/08/23 06:52:24;;;;;;;;;;;;;;;22.02;29.06;98084.66;4922108;29;991;-77
2023/08/23 06:54:50;;;;;;;;;;;;;;;21.97;29.12;98088.06;4938050;29;993;-76
2023/08/23 06:57:16;;;;;;;;;;;;;;;21.96;29.15;98092.91;4938364;29;999;-77
2023/08/23 06:59:41;;;;;;;;;;;;;;;22.06;28.87;98091.03;4937927;29;969;-77
2023/08/23 07:02:07;;;;;;;;;;;;;;;21.88;29.35;98087.91;4922075;29;1023;-77
2023/08/23 07:04:32;;;;;;;;;;;;;;;21.92;29.16;98088.63;4921686;29;1906;-77
2023/08/23 07:06:57;;;;;;;;;;;;;;;22.30;28.92;98089.59;4937905;29;1151;-77
2023/08/23 07:09:23;;;;;;;;;;;;;;;22.04;28.99;98093.53;4937707;29;975;-76
2023/08/23 07:11:49;;;;;;;;;;;;;;;21.64;29.74;98098.63;4937784;29;974;-77
2023/08/23 07:14:14;;;;;;;;;;;;;;;22.03;29.29;98091.94;4937618;29;970;-77
2023/08/23 07:16:39;;;;;;;;;;;;;;;22.04;29.30;98094.34;4937696;29;958;-76
2023/08/23 07:19:05;;;;;;;;;;;;;;;21.88;29.67;98102.06;4937381;29;966;-77
2023/08/23 07:21:30;;;;;;;;;;;;;;;22.10;29.44;98097.41;4937684;29;990;-77
2023/08/23 07:23:56;;;;;;;;;;;;;;;22.14;29.29;98106.66;4938744;29;961;-77
2023/08/23 07:26:21;;;;;;;;;;;;;;;22.15;29.12;98105.41;4940393;29;1903;-77
2023/08/23 07:28:47;;;;;;;;;;;;;;;22.23;29.09;98103.97;4940748;29;989;-77
2023/08/23 07:31:13;;;;;;;;;;;;;;;22.28;29.23;98097.75;4940641;29;1016;-78
2023/08/23 07:33:38;;;;;;;;;;;;;;;22.18;29.39;98104.53;4939954;29;1159;-77
2023/08/23 07:36:04;;;;;;;;;;;;;;;22.09;29.50;98101.50;4955441;28;942;-77
2023/08/23 07:38:32;;;;;;;;;;;;;;;21.99;29.46;98094.09;4977598;28;923;-77
2023/08/23 07:40:58;;;;;;;;;;;;;;;22.04;29.30;98097.16;4978085;28;924;-77
2023/08/23 07:43:23;;;;;;;;;;;;;;;22.21;29.41;98091.47;4960379;28;968;-76
2023/08/23 07:45:56;;;;;;;;;;;;;;;22.46;28.95;98096.47;4960532;28;1966;-77
2023/08/23 07:48:24;;;;;;;;;;;;;;;21.98;29.86;98089.66;4936860;29;1323;-77
2023/08/23 07:50:50;;;;;;;;;;;;;;;22.23;29.44;98084.13;4889894;29;1115;-76
2023/08/23 07:53:16;;;;;;;;;;;;;;;22.40;29.03;98082.03;4936952;29;1027;-77
2023/08/23 07:55:41;;;;;;;;;;;;;;;22.10;29.44;98086.09;4905644;29;1001;-77
2023/08/23 07:58:07;;;;;;;;;;;;;;;22.00;29.98;98078.66;4905440;29;1121;-77
2023/08/23 08:00:32;;;;;;;;;;;;;;;22.09;29.70;98076.78;4905076;29;1034;-77
2023/08/23 08:02:58;;;;;;;;;;;;;;;22.05;29.74;98089.47;4920791;29;976;-78
2023/08/23 08:05:23;;;;;;;;;;;;;;;21.94;29.97;98088.94;4936778;29;1903;-77
2023/08/23 08:07:49;;;;;;;;;;;;;;;21.81;30.39;98086.84;4936769;29;1019;-77
2023/08/23 08:10:14;;;;;;;;;;;;;;;22.29;29.70;98093.69;4917481;29;1148;-78
2023/08/23 08:12:40;;;;;;;;;;;;;;;22.32;29.41;98089.94;4917595;29;963;-77
2023/08/23 08:15:06;;;;;;;;;;;;;;;21.97;30.15;98082.41;4901692;29;919;-77
2023/08/23 08:17:33;;;;;;;;;;;;;;;22.25;29.71;98087.31;4902032;29;957;-77
2023/08/23 08:20:00;;;;;;;;;;;;;;;22.29;29.35;98082.34;4915994;29;1017;-77
2023/08/23 08:22:25;;;;;;;;;;;;;;;22.36;29.47;98087.81;4904932;29;1272;-77
2023/08/23 08:24:51;;;;;;;;;;;;;;;22.33;29.45;98088.72;4920478;29;1980;-78
2023/08/23 08:27:16;;;;;;;;;;;;;;;22.47;29.27;98087.50;4920654;29;1090;-77
2023/08/23 08:29:42;;;;;;;;;;;;;;;22.17;29.94;98082.28;4904714;29;926;-76
2023/08/23 08:32:07;;;;;;;;;;;;;;;22.53;29.32;98080.03;4920390;29;1064;-77
2023/08/23 08:34:33;;;;;;;;;;;;;;;22.31;29.63;98082.69;4920451;29;959;-77
2023/08/23 08:36:58;;;;;;;;;;;;;;;22.32;29.46;98092.78;4919744;29;1099;-77
2023/08/23 08:39:24;;;;;;;;;;;;;;;22.40;29.53;98092.59;4936212;29;997;-77
2023/08/23 08:41:49;;;;;;;;;;;;;;;22.37;29.36;98082.94;4950374;28;915;-77
2023/08/23 08:44:15;;;;;;;;;;;;;;;22.23;29.94;98078.47;4943501;28;932;-77
2023/08/23 08:46:40;;;;;;;;;;;;;;;22.35;29.59;98083.38;4920336;29;1910;-77
2023/08/23 08:49:06;;;;;;;;;;;;;;;22.35;29.90;98077.72;4920570;29;933;-77
2023/08/23 08:51:32;;;;;;;;;;;;;;;22.36;29.70;98076.47;4904494;29;1275;-77
2023/08/23 08:53:58;;;;;;;;;;;;;;;22.21;29.90;98080.94;4936280;29;1133;-76
2023/08/23 08:56:23;;;;;;;;;;;;;;;22.27;29.86;98081.19;4920318;29;1059;-77
2023/08/23 08:58:49;;;;;;;;;;;;;;;22.33;29.72;98082.25;4904450;29;1802;-77
2023/08/23 09:01:15;;;;;;;;;;;;;;;22.39;29.77;98074.78;4904530;29;1039;-77
2023/08/23 09:03:41;;;;;;;;;;;;;;;22.35;29.65;98074.88;4901092;29;1305;-77
2023/08/23 09:06:07;;;;;;;;;;;;;;;22.49;29.71;98067.22;4901225;29;1907;-77
2023/08/23 09:08:33;;;;;;;;;;;;;;;22.48;29.49;98065.59;4917139;29;1074;-77
2023/08/23 09:10:58;;;;;;;;;;;;;;;22.66;29.43;98071.56;4901124;29;1201;-78
2023/08/23 09:13:24;;;;;;;;;;;;;;;22.29;29.83;98065.34;4901211;29;1113;-77
2023/08/23 09:15:50;;;;;;;;;;;;;;;22.11;30.33;98062.19;4916789;29;1009;-78
2023/08/23 09:18:19;;;;;;;;;;;;;;;22.41;29.62;98048.81;4945778;29;983;-77
2023/08/23 09:20:44;;;;;;;;;;;;;;;22.18;29.98;98059.19;4939378;29;1040;-77
2023/08/23 09:23:10;;;;;;;;;;;;;;;22.36;29.40;98053.78;4939244;29;1008;-77
2023/08/23 09:25:35;;;;;;;;;;;;;;;22.45;29.34;98038.16;4938915;29;1969;-77
2023/08/23 09:28:01;;;;;;;;;;;;;;;22.39;29.43;98034.31;4938853;29;1014;-77
2023/08/23 09:30:26;;;;;;;;;;;;;;;22.19;29.81;98048.63;4954841;29;893;-77
2023/08/23 09:32:52;;;;;;;;;;;;;;;22.30;29.38;98049.91;4923015;29;1280;-78
2023/08/23 09:35:18;;;;;;;;;;;;;;;22.49;29.26;98036.81;4938825;28;963;-77
2023/08/23 09:37:44;;;;;;;;;;;;;;;22.30;29.36;98032.91;4959270;28;1012;-78
2023/08/23 09:40:17;;;;;;;;;;;;;;;22.30;29.49;98032.91;4959889;28;928;-77
2023/08/23 09:42:43;;;;;;;;;;;;;;;22.17;29.57;98022.75;4927527;28;1252;-76
2023/08/23 09:45:09;;;;;;;;;;;;;;;22.06;30.08;98025.88;4943627;28;1967;-77
2023/08/23 09:47:35;;;;;;;;;;;;;;;22.15;29.86;98019.59;4959167;28;1258;-78
2023/08/23 09:50:00;;;;;;;;;;;;;;;22.46;29.36;98023.53;4945268;28;926;-76
2023/08/23 09:52:26;;;;;;;;;;;;;;;22.41;29.48;98012.75;4962798;28;1022;-77
2023/08/23 09:54:51;;;;;;;;;;;;;;;22.35;29.49;98018.19;4962656;28;932;-77
2023/08/23 09:57:17;;;;;;;;;;;;;;;22.08;29.85;98020.56;4979973;28;823;-78
2023/08/23 09:59:43;;;;;;;;;;;;;;;21.95;30.12;98016.88;4946609;28;1007;-77
2023/08/23 10:02:10;;;;;;;;;;;;;;;21.98;30.01;98016.00;4962784;28;1080;-78
2023/08/23 10:04:37;;;;;;;;;;;;;;;22.39;29.63;98012.41;4946736;28;1967;-77
2023/08/23 10:07:02;;;;;;;;;;;;;;;22.60;29.01;98016.66;4979900;28;1003;-78
2023/08/23 10:09:28;;;;;;;;;;;;;;;22.34;29.75;98005.25;4962282;28;948;-77
2023/08/23 10:11:53;;;;;;;;;;;;;;;22.50;29.06;98006.41;4979631;28;958;-77
2023/08/23 10:14:19;;;;;;;;;;;;;;;22.53;29.12;98006.28;4962616;28;913;-77
2023/08/23 10:16:44;;;;;;;;;;;;;;;22.56;29.27;98010.28;4961292;28;1818;-77
2023/08/23 10:19:10;;;;;;;;;;;;;;;22.52;29.37;98015.25;4962447;28;888;-77
2023/08/23 10:21:35;;;;;;;;;;;;;;;22.34;29.48;98008.09;4962254;28;1062;-77
2023/08/23 10:24:04;;;;;;;;;;;;;;;22.17;29.87;98006.56;4962362;28;1072;-77
2023/08/23 10:26:30;;;;;;;;;;;;;;;22.44;29.27;98016.75;4962074;28;1902;-77
2023/08/23 10:28:56;;;;;;;;;;;;;;;22.65;29.13;98006.78;4976450;28;958;-78
2023/08/23 10:31:28;;;;;;;;;;;;;;;22.83;28.65;98004.97;4929795;28;1296;-77
2023/08/23 10:33:54;;;;;;;;;;;;;;;22.72;28.83;98006.56;4946035;28;1208;-77
2023/08/23 10:36:23;;;;;;;;;;;;;;;22.55;29.20;98011.53;4962069;28;914;-77
2023/08/23 10:38:49;;;;;;;;;;;;;;;22.25;29.31;98012.81;4962283;28;1023;-77
2023/08/23 10:41:20;;;;;;;;;;;;;;;22.57;29.11;98011.88;4922381;29;1223;-77
2023/08/23 10:43:45;;;;;;;;;;;;;;;22.57;28.82;98011.88;4922081;29;1060;-78
2023/08/23 10:46:11;;;;;;;;;;;;;;;22.62;28.94;98002.81;4937923;29;1902;-76
2023/08/23 10:48:37;;;;;;;;;;;;;;;22.59;28.78;97998.03;4937916;29;1002;-77
2023/08/23 10:51:02;;;;;;;;;;;;;;;22.04;29.59;97991.53;4937887;29;1154;-77
2023/08/23 10:53:28;;;;;;;;;;;;;;;22.06;29.78;97997.53;4938224;29;978;-78
2023/08/23 10:55:53;;;;;;;;;;;;;;;22.18;29.46;97994.00;4906167;29;1188;-77
2023/08/23 10:58:19;;;;;;;;;;;;;;;22.32;29.24;97989.94;4938180;29;970;-77
2023/08/23 11:00:45;;;;;;;;;;;;;;;22.38;29.04;97987.31;4937850;29;988;-77
2023/08/23 11:03:11;;;;;;;;;;;;;;;22.44;29.24;97985.56;4938013;29;1081;-77
2023/08/23 11:05:36;;;;;;;;;;;;;;;22.43;28.91;97979.06;4937859;29;1906;-78
2023/08/23 11:08:02;;;;;;;;;;;;;;;22.38;29.19;97982.44;4921952;29;1141;-76
2023/08/23 11:10:28;;;;;;;;;;;;;;;22.34;29.16;97973.28;4937926;29;993;-77
2023/08/23 11:12:53;;;;;;;;;;;;;;;22.48;29.12;97974.88;4952693;28;1032;-77
2023/08/23 11:15:22;;;;;;;;;;;;;;;22.38;28.96;97976.00;4961124;28;1465;-77
2023/08/23 11:17:48;;;;;;;;;;;;;;;22.40;29.11;97968.63;4945375;28;1088;-77
2023/08/23 11:20:13;;;;;;;;;;;;;;;22.45;28.88;97976.59;4978319;28;1008;-77
2023/08/23 11:22:39;;;;;;;;;;;;;;;22.28;29.41;97977.94;4961271;28;974;-77
2023/08/23 11:25:05;;;;;;;;;;;;;;;22.29;29.20;97963.28;4978035;28;1923;-77
2023/08/23 11:27:30;;;;;;;;;;;;;;;22.33;28.95;97957.53;4960726;28;1459;-77
2023/08/23 11:29:59;;;;;;;;;;;;;;;22.36;28.99;97957.41;4929192;28;1255;-77
2023/08/23 11:32:24;;;;;;;;;;;;;;;22.23;29.30;97955.81;4961090;28;1016;-77
2023/08/23 11:34:50;;;;;;;;;;;;;;;22.16;29.26;97948.28;4961055;28;1011;-77
2023/08/23 11:37:15;;;;;;;;;;;;;;;22.27;29.40;97947.97;4960515;28;1172;-77
2023/08/23 11:39:41;;;;;;;;;;;;;;;22.44;28.88;97948.69;4944996;28;1544;-77
2023/08/23 11:42:06;;;;;;;;;;;;;;;22.47;29.02;97950.59;4960391;28;903;-77
2023/08/23 11:44:32;;;;;;;;;;;;;;;22.40;28.97;97950.84;4977522;28;1898;-77
2023/08/23 11:46:58;;;;;;;;;;;;;;;22.13;29.73;97937.88;4947259;29;1284;-76
2023/08/23 11:49:23;;;;;;;;;;;;;;;22.19;29.52;97941.72;4941252;29;991;-77
2023/08/23 11:51:50;;;;;;;;;;;;;;;22.43;28.88;97930.06;4941444;29;991;-78
2023/08/23 11:54:16;;;;;;;;;;;;;;;22.45;28.86;97936.09;4925296;29;1118;-78
2023/08/23 11:56:43;;;;;;;;;;;;;;;22.24;29.49;97932.69;4958352;29;875;-77
2023/08/23 11:59:09;;;;;;;;;;;;;;;22.60;28.64;97931.56;4925627;29;970;-78
2023/08/23 12:01:35;;;;;;;;;;;;;;;22.66;28.82;97929.75;4941182;29;896;-78
2023/08/23 12:04:00;;;;;;;;;;;;;;;22.47;29.26;97922.25;4925409;29;2057;-77
2023/08/23 12:06:26;;;;;;;;;;;;;;;22.48;28.82;97923.84;4941322;29;1918;-76
2023/08/23 12:08:52;;;;;;;;;;;;;;;22.52;28.98;97927.34;4940896;29;991;-77
2023/08/23 12:11:17;;;;;;;;;;;;;;;22.54;29.11;97927.72;4898473;29;904;-77
2023/08/23 12:13:43;;;;;;;;;;;;;;;22.44;29.06;97923.19;4882838;29;1265;-77
2023/08/23 12:16:09;;;;;;;;;;;;;;;22.22;29.50;97912.47;4880198;29;947;-76
2023/08/23 12:18:35;;;;;;;;;;;;;;;22.26;29.66;97915.22;4880060;29;1002;-77
2023/08/23 12:21:01;;;;;;;;;;;;;;;22.42;29.33;97919.97;4849182;29;1034;-77
2023/08/23 12:23:26;;;;;;;;;;;;;;;22.40;29.32;97923.28;4864734;29;1046;-77
2023/08/23 12:25:52;;;;;;;;;;;;;;;22.52;28.87;97925.31;4879930;29;1895;-77
2023/08/23 12:28:17;;;;;;;;;;;;;;;22.61;28.82;97930.31;4849099;29;1298;-77
2023/08/23 12:30:43;;;;;;;;;;;;;;;22.50;28.98;97927.81;4848972;29;1220;-77
2023/08/23 12:33:08;;;;;;;;;;;;;;;22.62;28.91;97923.38;4879913;29;953;-77
2023/08/23 12:35:34;;;;;;;;;;;;;;;22.48;29.06;97929.50;4864371;29;964;-77
2023/08/23 12:37:59;;;;;;;;;;;;;;;22.29;29.20;97929.28;4864160;29;1021;-78
2023/08/23 12:40:25;;;;;;;;;;;;;;;22.59;28.71;97935.66;4848846;29;1013;-77
2023/08/23 12:42:51;;;;;;;;;;;;;;;22.49;29.18;97931.13;4891713;29;998;-77
2023/08/23 12:45:17;;;;;;;;;;;;;;;22.50;28.98;97938.38;4901319;29;1907;-77
2023/08/23 12:47:43;;;;;;;;;;;;;;;22.51;28.74;97923.72;4935215;29;1008;-77
2023/08/23 12:50:09;;;;;;;;;;;;;;;22.62;28.51;97934.72;4898095;29;1007;-78
2023/08/23 12:52:37;;;;;;;;;;;;;;;22.32;29.04;97925.53;4898452;29;1057;-77